createdAt,value
2022-11-21T00:05:58.475Z,96.90
2022-11-21T00:12:00.401Z,97.43
2022-11-21T00:18:05.643Z,97.63
2022-11-21T00:24:10.144Z,97.29
2022-11-21T00:30:12.597Z,96.57
2022-11-21T00:36:14.503Z,96.65
2022-11-21T00:42:16.416Z,96.80
2022-11-21T00:48:18.339Z,97.12
2022-11-21T00:54:20.522Z,97.64
2022-11-21T01:00:24.392Z,97.29
2022-11-21T01:06:26.321Z,96.84
2022-11-21T01:12:28.288Z,97.42
2022-11-21T01:18:30.261Z,97.47
2022-11-21T01:24:32.285Z,97.94
2022-11-21T01:30:34.236Z,98.56
2022-11-21T01:36:39.185Z,98.70
2022-11-21T01:43:03.064Z,98.17
2022-11-21T01:49:27.409Z,98.58
2022-11-21T01:55:34.488Z,98.53
2022-11-21T02:01:37.925Z,98.88
2022-11-21T02:07:43.241Z,98.49
2022-11-21T02:13:45.266Z,98.72
2022-11-21T02:19:56.874Z,97.14
2022-11-21T02:25:59.643Z,98.21
2022-11-21T02:32:08.827Z,98.37
2022-11-21T02:38:21.112Z,98.30
2022-11-21T02:44:31.734Z,98.85
2022-11-21T02:50:36.676Z,100.00
2022-11-21T02:56:38.634Z,100.00
2022-11-21T03:02:40.873Z,100.00
2022-11-21T03:08:42.782Z,100.00
2022-11-21T03:14:44.908Z,100.00
2022-11-21T03:21:14.587Z,100.00
2022-11-21T03:27:16.562Z,99.29
2022-11-21T03:39:34.377Z,99.69
2022-11-21T03:45:40.687Z,99.04
2022-11-21T03:51:43.872Z,99.37
2022-11-21T03:57:49.301Z,98.74
2022-11-21T04:03:52.313Z,98.78
2022-11-21T04:09:56.496Z,99.22
2022-11-21T04:15:58.578Z,98.80
2022-11-21T04:22:00.517Z,99.17
2022-11-21T04:28:04.508Z,97.24
2022-11-21T04:34:06.484Z,97.92
2022-11-21T04:40:09.175Z,97.10
2022-11-21T04:46:11.119Z,97.28
2022-11-21T04:52:13.127Z,97.56
2022-11-21T04:58:15.122Z,96.90
2022-11-21T05:04:17.166Z,98.02
2022-11-21T05:10:19.105Z,97.84
2022-11-21T05:16:21.014Z,97.86
2022-11-21T05:22:23.005Z,97.66
2022-11-21T05:28:25.121Z,97.17
2022-11-21T05:34:27.322Z,97.19
2022-11-21T05:40:29.472Z,97.55
2022-11-21T05:46:37.615Z,97.49
2022-11-21T05:52:39.537Z,96.38
2022-11-21T05:58:43.045Z,96.65
2022-11-21T06:04:44.945Z,96.61
2022-11-21T06:10:46.908Z,97.21
2022-11-21T06:16:50.130Z,97.53
2022-11-21T06:22:55.113Z,96.76
2022-11-21T06:29:07.156Z,96.83
2022-11-21T06:35:09.275Z,96.59
2022-11-21T06:41:31.941Z,96.02
2022-11-21T06:47:35.159Z,97.06
2022-11-21T06:53:37.105Z,96.52
2022-11-21T06:59:48.008Z,96.35
2022-11-21T07:05:50.797Z,96.10
2022-11-21T07:11:52.699Z,96.47
2022-11-21T07:17:54.601Z,96.60
2022-11-21T07:23:56.555Z,96.73
2022-11-21T07:29:58.624Z,96.34
2022-11-21T07:36:11.221Z,94.98
2022-11-21T07:42:13.138Z,95.47
2022-11-21T07:48:15.111Z,94.97
2022-11-21T07:54:17.162Z,95.10
2022-11-21T08:00:19.450Z,93.85
2022-11-21T08:06:21.534Z,92.82
2022-11-21T08:12:23.524Z,92.30
2022-11-21T08:18:31.760Z,92.93
2022-11-21T08:24:33.662Z,92.47
2022-11-21T08:30:36.725Z,92.04
2022-11-21T08:36:51.877Z,90.90
2022-11-21T08:43:08.387Z,90.75
2022-11-21T08:49:10.516Z,90.41
2022-11-21T08:55:12.896Z,90.03
2022-11-21T09:01:17.754Z,90.37
2022-11-21T09:07:19.748Z,90.52
2022-11-21T09:13:21.998Z,88.95
2022-11-21T09:19:36.441Z,88.20
2022-11-21T09:25:38.739Z,87.98
2022-11-21T09:31:44.335Z,89.41
2022-11-21T09:37:47.020Z,87.31
2022-11-21T09:44:15.751Z,87.79
2022-11-21T09:50:34.635Z,86.20
2022-11-21T09:56:42.216Z,83.16
2022-11-21T10:02:56.892Z,83.03
2022-11-21T10:09:44.520Z,82.53
2022-11-21T10:16:08.231Z,83.51
2022-11-21T10:30:07.144Z,82.95
2022-11-21T10:36:43.386Z,82.04
2022-11-21T10:43:00.139Z,83.23
2022-11-21T10:49:04.776Z,82.37
2022-11-21T10:55:14.783Z,82.90
2022-11-21T11:01:28.815Z,82.17
2022-11-21T11:07:30.908Z,81.90
2022-11-21T11:13:50.856Z,80.80
2022-11-21T11:20:32.111Z,81.01
2022-11-21T11:26:34.178Z,81.84
2022-11-21T11:32:41.373Z,81.77
2022-11-21T11:38:57.658Z,81.49
2022-11-21T11:45:36.610Z,80.51
2022-11-21T11:51:47.114Z,81.00
2022-11-21T11:57:54.567Z,81.44
2022-11-21T12:04:23.806Z,80.34
2022-11-21T12:11:23.701Z,81.93
2022-11-21T12:17:57.630Z,81.31
2022-11-21T12:24:25.124Z,79.92
2022-11-21T12:31:09.480Z,80.20
2022-11-21T12:37:26.248Z,80.63
2022-11-21T12:43:57.711Z,81.38
2022-11-21T12:50:49.025Z,82.57
2022-11-21T12:57:17.084Z,82.73
2022-11-21T13:04:05.426Z,84.82
2022-11-21T13:10:15.344Z,85.62
2022-11-21T13:16:37.051Z,85.93
2022-11-21T13:22:39.011Z,86.97
2022-11-21T13:28:46.042Z,86.95
2022-11-21T13:34:59.720Z,87.27
2022-11-21T13:41:20.133Z,85.90
2022-11-21T13:48:04.325Z,86.52
2022-11-21T13:54:29.113Z,86.82
2022-11-21T14:01:07.770Z,88.25
2022-11-21T14:07:35.511Z,87.56
2022-11-21T14:13:39.019Z,88.06
2022-11-21T14:19:42.119Z,88.26
2022-11-21T14:26:03.437Z,88.51
2022-11-21T14:32:06.219Z,89.98
2022-11-21T14:38:08.282Z,91.28
2022-11-21T14:44:10.135Z,90.86
2022-11-21T14:50:33.471Z,91.23
2022-11-21T14:56:35.457Z,91.41
2022-11-21T15:02:37.871Z,91.72
2022-11-21T15:15:19.028Z,93.10
2022-11-21T15:21:21.049Z,92.54
2022-11-21T15:27:32.803Z,93.21
2022-11-21T15:34:19.205Z,94.00
2022-11-21T15:40:20.488Z,94.11
2022-11-21T15:46:25.382Z,94.12
2022-11-21T15:52:27.325Z,93.89
2022-11-21T15:58:29.311Z,93.95
2022-11-21T16:04:31.257Z,94.03
2022-11-21T16:10:33.195Z,94.19
2022-11-21T16:16:43.155Z,94.20
2022-11-21T16:22:47.823Z,93.94
2022-11-21T16:28:58.007Z,93.64
2022-11-21T16:41:19.494Z,95.01
2022-11-21T16:47:21.558Z,95.14
2022-11-21T16:53:23.480Z,95.68
2022-11-21T16:59:25.406Z,95.51
2022-11-21T17:05:27.432Z,95.53
2022-11-21T17:11:31.417Z,95.48
2022-11-21T17:17:33.360Z,96.43
2022-11-21T17:23:49.514Z,96.81
2022-11-21T17:29:51.441Z,97.43
2022-11-21T17:35:53.422Z,97.58
2022-11-21T17:41:55.528Z,98.17
2022-11-21T17:47:57.557Z,98.24
2022-11-21T17:54:01.045Z,98.44
2022-11-21T18:00:04.984Z,98.32
2022-11-21T18:06:13.114Z,98.17
2022-11-21T18:12:15.063Z,97.95
2022-11-21T18:18:22.196Z,97.78
2022-11-21T18:24:24.131Z,97.99
2022-11-21T18:30:26.013Z,97.54
2022-11-21T18:36:33.812Z,98.02
2022-11-21T18:42:35.755Z,98.84
2022-11-21T18:49:00.647Z,99.23
2022-11-21T18:55:00.678Z,98.94
2022-11-21T19:01:12.445Z,99.56
2022-11-21T19:07:14.427Z,99.75
2022-11-21T19:13:16.421Z,100.00
2022-11-21T19:19:37.475Z,100.00
2022-11-21T19:25:41.755Z,100.00
2022-11-21T19:31:55.339Z,100.00
2022-11-21T19:37:57.271Z,100.00
2022-11-21T19:44:00.957Z,100.00
2022-11-21T19:50:03.411Z,100.00
2022-11-21T19:56:17.749Z,100.00
2022-11-21T20:02:21.559Z,100.00
2022-11-21T20:08:35.647Z,100.00
2022-11-21T20:14:37.715Z,100.00
2022-11-21T20:20:39.618Z,100.00
2022-11-21T20:26:42.162Z,100.00
2022-11-21T20:32:44.683Z,100.00
2022-11-21T20:39:02.506Z,100.00
2022-11-21T20:46:06.298Z,100.00
2022-11-21T20:57:55.282Z,100.00
2022-11-21T21:03:57.749Z,100.00
2022-11-21T21:10:02.150Z,100.00
2022-11-21T21:16:12.623Z,100.00
2022-11-21T21:22:14.672Z,100.00
2022-11-21T21:28:23.002Z,100.00
2022-11-21T21:34:25.077Z,100.00
2022-11-21T21:40:27.030Z,100.00
2022-11-21T21:46:28.939Z,100.00
2022-11-21T21:52:30.828Z,100.00
2022-11-21T21:58:36.043Z,100.00
2022-11-21T22:04:38.032Z,100.00
2022-11-21T22:10:39.988Z,100.00
2022-11-21T22:16:46.561Z,100.00
2022-11-21T22:22:48.502Z,100.00
2022-11-21T22:28:51.068Z,100.00
2022-11-21T22:34:52.984Z,100.00
2022-11-21T22:41:09.049Z,100.00
2022-11-21T22:47:11.042Z,100.00
2022-11-21T22:53:12.959Z,100.00
2022-11-21T22:59:15.038Z,100.00
2022-11-21T23:05:17.810Z,100.00
2022-11-21T23:11:24.329Z,100.00
2022-11-21T23:17:26.315Z,100.00
2022-11-21T23:23:28.653Z,100.00
2022-11-21T23:29:35.539Z,100.00
2022-11-21T23:35:37.676Z,100.00
2022-11-21T23:41:40.796Z,100.00
2022-11-21T23:47:42.705Z,100.00
2022-11-21T23:53:44.607Z,100.00
2022-11-21T23:59:53.470Z,100.00
